createdAt,value
2023-02-25T08:40:21.371Z,1.19
2023-02-25T08:45:24.809Z,1.25
2023-02-25T08:50:29.888Z,1.22
2023-02-25T08:55:37.074Z,1.36
2023-02-25T09:00:41.564Z,1.35
2023-02-25T09:05:44.912Z,1.38
2023-02-25T09:10:50.967Z,1.42
2023-02-25T09:15:58.704Z,1.52
2023-02-25T09:21:02.426Z,1.78
2023-02-25T09:26:09.015Z,2.05
2023-02-25T09:31:12.663Z,2.16
2023-02-25T09:36:18.224Z,2.29
2023-02-25T09:41:32.673Z,2.08
2023-02-25T09:46:41.463Z,2.07
2023-02-25T09:51:49.804Z,2.09
2023-02-25T09:56:56.673Z,2.22
2023-02-25T10:02:06.610Z,2.71
2023-02-25T10:07:18.500Z,3.26
2023-02-25T10:12:33.124Z,3.93
2023-02-25T10:17:47.575Z,3.94
2023-02-25T10:22:58.572Z,4.02
2023-02-25T10:28:07.685Z,3.61
2023-02-25T10:33:18.011Z,3.33
2023-02-25T10:38:21.333Z,3.28
2023-02-25T10:43:28.211Z,3.24
2023-02-25T10:48:32.284Z,3.11
2023-02-25T10:53:35.780Z,2.93
2023-02-25T10:58:42.544Z,2.81
2023-02-25T11:03:53.916Z,2.82
2023-02-25T11:08:59.386Z,2.85
2023-02-25T11:14:07.531Z,2.88
2023-02-25T11:19:16.304Z,3.06
2023-02-25T11:24:31.468Z,3.07
2023-02-25T11:29:39.415Z,3.15
2023-02-25T11:34:50.372Z,3.07
2023-02-25T11:39:54.787Z,2.80
2023-02-25T11:45:02.643Z,2.87
2023-02-25T11:50:26.328Z,2.75
2023-02-25T11:55:44.791Z,2.67
2023-02-25T12:00:59.727Z,2.55
2023-02-25T12:06:16.698Z,2.47
2023-02-25T12:12:14.534Z,2.36
2023-02-25T12:17:51.020Z,2.18
2023-02-25T12:23:43.348Z,2.05
2023-02-25T12:29:03.872Z,1.94
2023-02-25T12:34:30.791Z,1.87
2023-02-25T12:39:49.184Z,1.88
2023-02-25T12:45:43.096Z,2.03
2023-02-25T12:51:07.064Z,2.03
2023-02-25T12:56:31.679Z,2.04
2023-02-25T13:01:57.847Z,2.04
2023-02-25T13:07:37.700Z,1.92
2023-02-25T13:13:04.967Z,1.86
2023-02-25T13:18:20.232Z,1.86
2023-02-25T13:23:49.912Z,1.80
2023-02-25T13:29:13.153Z,1.78
2023-02-25T13:34:29.560Z,1.73
2023-02-25T13:40:20.700Z,1.72
2023-02-25T13:45:51.489Z,1.67
2023-02-25T13:51:11.755Z,1.63
2023-02-25T13:56:53.484Z,1.65
2023-02-25T14:02:15.042Z,1.69
2023-02-25T14:07:34.963Z,1.45
2023-02-25T14:12:51.529Z,1.56
2023-02-25T14:18:16.644Z,1.45
2023-02-25T14:23:34.028Z,1.24
2023-02-25T14:28:45.606Z,1.29
2023-02-25T14:34:19.635Z,1.24
2023-02-25T14:39:44.533Z,1.21
2023-02-25T14:44:56.633Z,1.19
2023-02-25T14:50:09.745Z,1.17
2023-02-25T14:55:30.680Z,1.15
2023-02-25T15:01:11.240Z,1.12
2023-02-25T15:06:54.445Z,1.05
2023-02-25T15:12:25.284Z,1.02
2023-02-25T15:17:55.979Z,0.98
2023-02-25T15:23:11.878Z,0.92
2023-02-25T15:28:43.855Z,0.90
2023-02-25T15:33:47.904Z,0.87
2023-02-25T15:38:55.621Z,0.81
2023-02-25T15:44:00.469Z,0.82
2023-02-25T15:49:07.003Z,0.74
2023-02-25T15:54:12.769Z,0.77
2023-02-25T15:59:44.558Z,0.74
2023-02-25T16:04:51.553Z,0.73
2023-02-25T16:09:59.952Z,0.67
2023-02-25T16:15:04.279Z,0.73
2023-02-25T16:20:17.089Z,0.69
2023-02-25T16:25:31.501Z,0.72
2023-02-25T16:30:42.456Z,0.67
2023-02-25T16:35:57.545Z,0.67
2023-02-25T16:41:04.690Z,0.65
2023-02-25T16:46:09.955Z,0.61
2023-02-25T16:51:21.403Z,0.60
2023-02-25T16:56:29.953Z,0.62
2023-02-25T17:01:34.847Z,0.55
2023-02-25T17:06:38.472Z,0.57
2023-02-25T17:11:43.299Z,0.55
2023-02-25T17:16:48.018Z,0.53
2023-02-25T17:21:55.402Z,0.48
2023-02-25T17:27:02.238Z,0.52
2023-02-25T17:32:19.938Z,0.49
2023-02-25T17:37:25.900Z,0.49
2023-02-25T17:42:33.544Z,0.48
2023-02-25T17:47:38.383Z,0.44
2023-02-25T17:52:41.686Z,0.46
2023-02-25T17:57:47.351Z,0.44
2023-02-25T18:03:10.265Z,0.39
2023-02-25T18:08:19.521Z,0.43
2023-02-25T18:13:33.934Z,0.41
2023-02-25T18:18:37.984Z,0.38
2023-02-25T18:23:42.049Z,0.36
2023-02-25T18:28:47.257Z,0.33
2023-02-25T18:33:51.133Z,0.33
2023-02-25T18:38:56.119Z,0.19
2023-02-25T18:44:02.004Z,0.29
2023-02-25T18:49:05.686Z,0.26
2023-02-25T18:54:11.290Z,0.21
2023-02-25T18:59:16.263Z,0.20
2023-02-25T19:04:19.795Z,0.17
2023-02-25T19:09:24.988Z,0.16
2023-02-25T19:14:30.360Z,0.13
2023-02-25T19:19:33.698Z,0.08
2023-02-25T19:24:37.048Z,0.12
2023-02-25T19:29:42.003Z,0.14
2023-02-25T19:34:45.582Z,0.16
2023-02-25T19:39:49.299Z,0.17
2023-02-25T19:44:54.093Z,0.16
2023-02-25T19:49:57.302Z,0.17
2023-02-25T19:55:00.515Z,0.17
2023-02-25T20:00:08.750Z,0.17
2023-02-25T20:05:12.821Z,0.20
2023-02-25T20:10:16.771Z,0.22
2023-02-25T20:15:21.619Z,0.24
2023-02-25T20:20:25.196Z,0.24
2023-02-25T20:25:28.542Z,0.26
2023-02-25T20:30:33.410Z,0.27
2023-02-25T20:35:37.156Z,0.26
2023-02-25T20:40:40.673Z,0.27
2023-02-25T20:45:46.527Z,0.25
2023-02-25T20:50:50.132Z,0.24
2023-02-25T20:55:57.142Z,0.25
2023-02-25T21:01:01.946Z,0.26
2023-02-25T21:06:05.669Z,0.27
2023-02-25T21:11:09.355Z,0.29
2023-02-25T21:16:14.747Z,0.32
2023-02-25T21:21:21.712Z,0.33
2023-02-25T21:26:25.615Z,0.34
2023-02-25T21:31:30.867Z,0.34
2023-02-25T21:36:34.570Z,0.33
2023-02-25T21:41:44.240Z,0.34
2023-02-25T21:46:49.319Z,0.34
2023-02-25T21:51:52.686Z,0.34
2023-02-25T21:56:56.031Z,0.35
2023-02-25T22:02:00.688Z,0.32
2023-02-25T22:07:03.854Z,0.32
2023-02-25T22:12:07.178Z,0.31
2023-02-25T22:17:11.695Z,0.30
2023-02-25T22:22:15.104Z,0.30
2023-02-25T22:27:18.357Z,0.29
2023-02-25T22:32:23.029Z,0.32
2023-02-25T22:37:26.513Z,0.30
2023-02-25T22:42:30.052Z,0.12
2023-02-25T22:47:34.681Z,0.29
2023-02-25T22:52:38.005Z,0.31
2023-02-25T22:57:41.427Z,0.31
2023-02-25T23:02:46.367Z,0.33
2023-02-25T23:07:50.084Z,0.35
2023-02-25T23:12:53.348Z,0.34
2023-02-25T23:17:58.455Z,0.34
2023-02-25T23:23:04.897Z,0.35
2023-02-25T23:28:09.725Z,0.22
2023-02-25T23:33:16.958Z,0.38
2023-02-25T23:38:21.908Z,0.39
2023-02-25T23:43:25.300Z,0.38
2023-02-25T23:48:28.741Z,0.38
2023-02-25T23:53:33.666Z,0.35
2023-02-25T23:58:37.555Z,0.37
